Weather at Dubai International Airport

Public forecast

Using degrees Celsius for public forecast. Weather courtesy of forecast.io.

Current aviation weather report (METAR) for Dubai International Airport

Retrieved 2021/03/08 06:00 UTC (2 hours ago):

OMDB 080600Z 22005KT 160V290 9999 FEW026 22/14 Q1016 NOSIG

Aviation forecast (TAF) for Dubai International Airport

Retrieved 2021/03/08 06:06 UTC (2 hours ago):

TAF OMDB 080500Z 0806/0912 22005KT 9999 SCT025 BECMG 0806/0808 28010KT BECMG 0816/0818 18005KT PROB30 0901/0905 4000 HZ BECMG 0908/0910 32010KT